Barro Duro, Brazil
Current Conditions -  °F | °C
As of 6:00 PM on Wednesday 17 Dec 2014 (Local Time) from SBTE Reporting Station
Few Clouds Few Clouds  
Wind Chill: 84°   Ceiling: Unl
Heat Index: 88°   Visibility: 6mi
Dew Point: 70°   Wind: 10mph
Humidity: 62%   Direction: 190°S
Pressure: 29.8"   Gusts: NA
Location:  5.82°S, 42.51°W
Report Text: SBTE 172100Z 19009KT 9999 FEW030 29/21 Q1009
Loading
Personal Weather Stations






























Interactive Weather Map New forecast layout! Learn more

10-Day Weather Forecast

Advertisements
Track Severe Weather on mobile